createdAt,value
2023-03-17T00:03:32.900Z,3.80
2023-03-17T00:08:38.525Z,3.70
2023-03-17T00:13:44.074Z,3.68
2023-03-17T00:18:46.661Z,3.60
2023-03-17T00:23:51.250Z,3.61
2023-03-17T00:28:54.178Z,3.57
2023-03-17T00:33:57.228Z,3.30
2023-03-17T00:39:00.843Z,3.66
2023-03-17T00:44:02.985Z,3.68
2023-03-17T00:49:14.237Z,3.73
2023-03-17T00:54:19.605Z,3.74
2023-03-17T00:59:26.896Z,3.70
2023-03-17T01:04:29.400Z,3.65
2023-03-17T01:09:33.157Z,3.59
2023-03-17T01:14:37.817Z,3.66
2023-03-17T01:19:40.108Z,3.59
2023-03-17T01:24:43.172Z,3.48
2023-03-17T01:29:45.409Z,3.46
2023-03-17T01:34:47.547Z,3.46
2023-03-17T01:39:51.096Z,3.42
2023-03-17T01:44:58.185Z,3.45
2023-03-17T01:50:05.169Z,3.38
2023-03-17T01:55:11.900Z,3.30
2023-03-17T02:00:16.906Z,3.28
2023-03-17T02:05:23.786Z,3.31
2023-03-17T02:10:29.452Z,3.26
2023-03-17T02:15:39.837Z,3.26
2023-03-17T02:21:34.575Z,3.20
2023-03-17T02:26:37.418Z,3.23
2023-03-17T02:31:39.275Z,3.22
2023-03-17T02:36:42.778Z,3.25
2023-03-17T02:41:45.023Z,3.22
2023-03-17T02:46:47.085Z,3.24
2023-03-17T02:51:51.735Z,3.24
2023-03-17T02:56:54.066Z,3.39
2023-03-17T03:01:56.317Z,3.29
2023-03-17T03:07:00.265Z,3.23
2023-03-17T03:12:02.518Z,3.24
2023-03-17T03:17:04.666Z,3.28
2023-03-17T03:22:07.932Z,3.26
2023-03-17T03:27:10.202Z,3.18
2023-03-17T03:32:12.588Z,3.16
2023-03-17T03:37:16.283Z,3.18
2023-03-17T03:42:17.999Z,3.26
2023-03-17T03:47:20.107Z,3.21
2023-03-17T03:52:23.494Z,3.17
2023-03-17T03:57:25.653Z,3.16
2023-03-17T04:02:27.938Z,3.04
2023-03-17T04:07:31.748Z,2.95
2023-03-17T04:12:33.825Z,3.01
2023-03-17T04:17:36.336Z,2.91
2023-03-17T04:22:39.783Z,2.93
2023-03-17T04:27:42.388Z,2.86
2023-03-17T04:32:45.307Z,2.88
2023-03-17T04:37:49.168Z,2.86
2023-03-17T04:42:51.375Z,2.94
2023-03-17T04:47:53.818Z,2.92
2023-03-17T04:52:57.500Z,2.89
2023-03-17T04:57:59.626Z,2.87
2023-03-17T05:03:07.115Z,2.88
2023-03-17T05:08:15.087Z,3.00
2023-03-17T05:13:17.266Z,2.95
2023-03-17T05:18:20.392Z,3.00
2023-03-17T05:23:23.902Z,2.94
2023-03-17T05:28:26.971Z,2.96
2023-03-17T05:33:29.011Z,3.02
2023-03-17T05:38:32.818Z,3.10
2023-03-17T05:43:34.842Z,3.08
2023-03-17T05:48:36.606Z,3.09
2023-03-17T05:53:40.040Z,3.15
2023-03-17T05:58:41.749Z,3.19
2023-03-17T06:03:43.971Z,3.28
2023-03-17T06:08:50.671Z,3.32
2023-03-17T06:13:52.752Z,3.45
2023-03-17T06:18:54.910Z,3.53
2023-03-17T06:23:58.481Z,3.64
2023-03-17T06:29:03.939Z,3.74
2023-03-17T06:34:09.105Z,3.85
2023-03-17T06:39:13.322Z,4.04
2023-03-17T06:44:18.474Z,4.28
2023-03-17T06:49:20.744Z,4.43
2023-03-17T06:54:24.188Z,4.59
2023-03-17T06:59:26.494Z,4.76
2023-03-17T07:04:28.484Z,4.88
2023-03-17T07:09:31.911Z,4.97
2023-03-17T07:14:35.033Z,5.22
2023-03-17T07:19:37.072Z,5.45
2023-03-17T07:24:43.322Z,5.72
2023-03-17T07:29:46.306Z,5.77
2023-03-17T07:34:51.018Z,5.75
2023-03-17T07:39:54.411Z,5.75
2023-03-17T07:44:58.981Z,5.85
2023-03-17T07:50:01.386Z,6.10
2023-03-17T07:55:04.999Z,6.43
2023-03-17T08:00:09.194Z,6.78
2023-03-17T08:05:11.455Z,6.74
2023-03-17T08:10:15.436Z,6.59
2023-03-17T08:15:17.913Z,6.87
2023-03-17T08:20:20.647Z,7.07
2023-03-17T08:25:23.901Z,7.66
2023-03-17T08:30:33.714Z,7.51
2023-03-17T08:35:36.976Z,7.68
2023-03-17T08:40:40.351Z,7.88
2023-03-17T08:45:42.457Z,8.25
2023-03-17T08:50:44.565Z,8.93
2023-03-17T08:55:47.618Z,9.34
2023-03-17T09:00:49.762Z,9.37
2023-03-17T09:05:54.052Z,9.69
2023-03-17T09:10:59.848Z,9.88
2023-03-17T09:16:01.597Z,9.95
2023-03-17T09:21:03.881Z,10.35
2023-03-17T09:26:07.637Z,10.41
2023-03-17T09:31:11.909Z,10.49
2023-03-17T09:36:13.993Z,10.68
2023-03-17T09:41:38.693Z,10.75
2023-03-17T09:46:51.669Z,10.98
2023-03-17T09:51:54.208Z,11.34
2023-03-17T09:57:03.904Z,12.59
2023-03-17T10:02:18.721Z,12.51
2023-03-17T10:07:26.832Z,13.28
2023-03-17T10:12:44.979Z,14.43
2023-03-17T10:17:47.198Z,13.73
2023-03-17T10:22:53.354Z,14.52
2023-03-17T10:28:01.925Z,14.44
2023-03-17T10:33:06.047Z,14.51
2023-03-17T10:38:17.002Z,14.92
2023-03-17T10:43:22.167Z,14.61
2023-03-17T10:48:23.971Z,13.63
2023-03-17T10:53:28.546Z,14.68
2023-03-17T10:58:46.911Z,16.11
2023-03-17T11:03:49.825Z,16.30
2023-03-17T11:08:54.333Z,15.89
2023-03-17T11:14:10.856Z,15.07
2023-03-17T11:19:16.091Z,15.13
2023-03-17T11:24:21.383Z,14.16
2023-03-17T11:29:35.076Z,14.89
2023-03-17T11:34:51.688Z,14.56
2023-03-17T11:40:01.310Z,14.16
2023-03-17T11:45:20.220Z,14.83
2023-03-17T11:50:29.574Z,14.62
2023-03-17T11:55:42.024Z,14.40
2023-03-17T12:00:49.846Z,14.52
2023-03-17T12:05:56.326Z,14.33
2023-03-17T12:11:02.306Z,15.38
2023-03-17T12:16:10.226Z,16.15
2023-03-17T12:21:25.073Z,15.66
2023-03-17T12:26:35.127Z,15.32
2023-03-17T12:31:41.833Z,15.18
2023-03-17T12:36:44.494Z,15.23
2023-03-17T12:42:11.557Z,15.05
2023-03-17T12:47:30.037Z,15.46
2023-03-17T12:52:50.106Z,15.52
2023-03-17T12:58:00.863Z,15.55
2023-03-17T13:03:18.914Z,15.16
2023-03-17T13:08:25.805Z,15.19
2023-03-17T13:13:40.746Z,15.45
2023-03-17T13:18:49.525Z,15.43
2023-03-17T13:24:21.110Z,15.68
2023-03-17T13:29:25.592Z,15.55
2023-03-17T13:34:30.210Z,15.22
2023-03-17T13:39:55.225Z,15.13
2023-03-17T13:45:17.517Z,14.76
2023-03-17T13:50:29.996Z,15.21
2023-03-17T13:55:36.425Z,14.69
2023-03-17T14:00:40.744Z,15.06
2023-03-17T14:05:48.094Z,14.74
2023-03-17T14:10:54.700Z,14.84
2023-03-17T14:16:00.750Z,14.89
2023-03-17T14:21:10.542Z,14.89
2023-03-17T14:26:13.861Z,14.82
2023-03-17T14:31:22.709Z,14.66
2023-03-17T14:36:26.921Z,14.88
2023-03-17T14:41:31.245Z,14.74
2023-03-17T14:46:36.855Z,14.63
2023-03-17T14:51:41.541Z,14.46
2023-03-17T14:56:47.072Z,14.43
2023-03-17T15:01:54.242Z,14.46
2023-03-17T15:06:59.560Z,14.54
2023-03-17T15:12:05.295Z,14.58
2023-03-17T15:17:16.856Z,14.45
2023-03-17T15:22:25.614Z,14.37
2023-03-17T15:27:30.385Z,14.29
2023-03-17T15:32:32.553Z,14.20
2023-03-17T15:37:35.724Z,14.15
2023-03-17T15:42:38.985Z,14.11
2023-03-17T15:47:42.123Z,14.00
2023-03-17T15:52:45.491Z,14.09
2023-03-17T15:57:54.717Z,14.08
2023-03-17T16:03:00.158Z,13.88
2023-03-17T16:08:03.753Z,13.81
2023-03-17T16:13:05.895Z,13.72
2023-03-17T16:18:13.565Z,13.55
2023-03-17T16:23:19.588Z,13.44
2023-03-17T16:28:24.574Z,13.38
2023-03-17T16:33:28.423Z,13.29
2023-03-17T16:38:34.592Z,13.12
2023-03-17T16:43:37.992Z,12.98
2023-03-17T16:48:40.273Z,12.83
2023-03-17T16:53:43.729Z,12.72
2023-03-17T16:58:46.917Z,12.59
2023-03-17T17:03:49.598Z,12.47
2023-03-17T17:08:53.036Z,12.48
2023-03-17T17:13:55.281Z,12.36
2023-03-17T17:18:57.931Z,12.19
2023-03-17T17:24:01.206Z,11.97
2023-03-17T17:29:03.270Z,11.91
2023-03-17T17:34:05.039Z,11.82
2023-03-17T17:39:10.100Z,11.71
2023-03-17T17:44:15.185Z,11.60
2023-03-17T17:49:17.450Z,11.57
2023-03-17T17:54:21.136Z,11.44
2023-03-17T17:59:22.832Z,11.37
2023-03-17T18:04:24.958Z,11.29
2023-03-17T18:09:30.858Z,11.22
2023-03-17T18:14:33.594Z,11.20
2023-03-17T18:19:35.305Z,11.14
2023-03-17T18:24:38.916Z,11.12
2023-03-17T18:29:40.729Z,11.01
2023-03-17T18:34:45.124Z,11.06
2023-03-17T18:39:58.534Z,11.04
2023-03-17T18:45:11.807Z,10.97
2023-03-17T18:50:15.264Z,10.93
2023-03-17T18:55:18.797Z,10.98
2023-03-17T19:00:21.541Z,10.89
2023-03-17T19:05:23.943Z,10.93
2023-03-17T19:10:27.460Z,10.86
2023-03-17T19:15:29.205Z,10.85
2023-03-17T19:20:31.938Z,10.83
2023-03-17T19:25:35.416Z,10.75
2023-03-17T19:30:37.840Z,10.86
2023-03-17T19:35:41.177Z,10.79
2023-03-17T19:40:44.825Z,10.67
2023-03-17T19:45:46.929Z,10.60
2023-03-17T19:50:48.788Z,10.64
2023-03-17T19:55:52.176Z,10.50
2023-03-17T20:00:54.337Z,10.46
2023-03-17T20:05:56.799Z,10.41
2023-03-17T20:11:00.473Z,10.36
2023-03-17T20:16:02.996Z,10.28
2023-03-17T20:21:06.013Z,10.37
2023-03-17T20:26:09.816Z,10.26
2023-03-17T20:31:12.069Z,10.18
2023-03-17T20:36:14.458Z,10.09
2023-03-17T20:41:19.010Z,10.00
2023-03-17T20:46:24.071Z,9.97
2023-03-17T20:51:26.923Z,9.87
2023-03-17T20:56:30.865Z,9.71
2023-03-17T21:01:33.716Z,9.69
2023-03-17T21:06:36.322Z,9.66
2023-03-17T21:11:39.607Z,9.50
2023-03-17T21:16:41.734Z,9.43
2023-03-17T21:21:44.046Z,9.48
2023-03-17T21:26:47.813Z,9.45
2023-03-17T21:31:50.072Z,9.33
2023-03-17T21:36:52.068Z,9.22
2023-03-17T21:41:56.303Z,9.19
2023-03-17T21:46:58.058Z,9.12
2023-03-17T21:52:00.250Z,9.08
2023-03-17T21:57:04.600Z,9.04
2023-03-17T22:02:06.451Z,9.01
2023-03-17T22:07:08.887Z,8.91
2023-03-17T22:12:12.572Z,8.89
2023-03-17T22:17:14.886Z,8.73
2023-03-17T22:22:17.041Z,8.72
2023-03-17T22:27:20.861Z,8.57
2023-03-17T22:32:23.250Z,8.41
2023-03-17T22:37:25.058Z,8.48
2023-03-17T22:42:28.756Z,8.47
2023-03-17T22:47:31.058Z,8.45
2023-03-17T22:52:33.145Z,8.55
2023-03-17T22:57:36.691Z,8.66
2023-03-17T23:02:39.124Z,8.69
2023-03-17T23:07:50.475Z,8.88
2023-03-17T23:12:55.422Z,8.91
2023-03-17T23:17:57.671Z,8.97
2023-03-17T23:22:59.902Z,8.98
2023-03-17T23:28:04.385Z,9.01
2023-03-17T23:33:06.628Z,9.01
2023-03-17T23:38:08.811Z,9.12
2023-03-17T23:43:12.686Z,9.21
2023-03-17T23:48:15.091Z,9.20
2023-03-17T23:53:21.066Z,9.12
2023-03-17T23:58:24.531Z,9.02
